createdAt,value
2022-10-18T00:00:01.133Z,997.9855
2022-10-18T00:01:00.267Z,997.9422
2022-10-18T00:02:00.465Z,997.9855
2022-10-18T00:03:00.580Z,998.0144
2022-10-18T00:04:00.717Z,998.0289
2022-10-18T00:05:00.866Z,997.8656
2022-10-18T00:06:01.022Z,997.844
2022-10-18T00:07:01.196Z,997.9784
2022-10-18T00:08:00.339Z,998.0651
2022-10-18T00:09:00.494Z,997.8803
2022-10-18T00:10:00.629Z,997.9569
2022-10-18T00:11:00.777Z,998.0365
2022-10-18T00:12:00.921Z,998.0005
2022-10-18T00:13:01.067Z,997.9141
2022-10-18T00:14:01.234Z,998.0224
2022-10-18T00:15:00.362Z,997.9503
2022-10-18T00:16:00.527Z,997.9935
2022-10-18T00:17:00.659Z,997.888
2022-10-18T00:18:00.814Z,997.9069
2022-10-18T00:19:00.964Z,997.8448
2022-10-18T00:20:01.098Z,997.8448
2022-10-18T00:21:01.265Z,997.8882
2022-10-18T00:22:00.395Z,997.9071
2022-10-18T00:23:00.543Z,997.881
2022-10-18T00:24:00.693Z,997.9865
2022-10-18T00:25:00.845Z,997.9288
2022-10-18T00:26:01.011Z,998.0731
2022-10-18T00:27:01.135Z,997.9145
2022-10-18T00:28:00.296Z,997.9867
2022-10-18T00:29:00.465Z,997.9218
2022-10-18T00:30:00.582Z,997.8669
2022-10-18T00:31:00.742Z,997.9435
2022-10-18T00:32:00.899Z,998.0734
2022-10-18T00:33:01.023Z,998.0014
2022-10-18T00:34:01.173Z,997.9798
2022-10-18T00:35:00.322Z,998.0015
2022-10-18T00:36:00.481Z,997.9798
2022-10-18T00:37:00.641Z,998.0015
2022-10-18T00:38:00.782Z,998.3678
2022-10-18T00:39:00.929Z,998.2886
2022-10-18T00:40:01.076Z,998.2598
2022-10-18T00:41:01.224Z,998.1101
2022-10-18T00:42:00.405Z,998.1246
2022-10-18T00:43:00.521Z,998.2268
2022-10-18T00:44:00.671Z,998.0816
2022-10-18T00:45:00.816Z,998.2415
2022-10-18T00:46:00.954Z,997.9808
2022-10-18T00:47:01.128Z,998.0528
2022-10-18T00:48:00.257Z,998.0673
2022-10-18T00:49:00.412Z,998.0961
2022-10-18T00:50:00.579Z,997.8322
2022-10-18T00:51:00.714Z,997.9664
2022-10-18T00:52:00.864Z,997.8611
2022-10-18T00:53:01.008Z,997.8942
2022-10-18T00:54:01.147Z,997.9951
2022-10-18T00:55:00.318Z,997.8609
2022-10-18T00:56:00.436Z,997.8609
2022-10-18T00:57:00.592Z,997.8249
2022-10-18T00:58:00.740Z,997.8177
2022-10-18T00:59:00.893Z,997.8177
2022-10-18T01:00:01.048Z,997.9088
2022-10-18T01:01:01.188Z,997.8177
2022-10-18T01:02:00.471Z,997.8754
2022-10-18T01:03:00.479Z,997.9016
2022-10-18T01:04:00.652Z,997.8828
2022-10-18T01:05:00.767Z,997.8468
2022-10-18T01:06:00.920Z,997.9089
2022-10-18T01:07:01.073Z,997.7533
2022-10-18T01:08:01.218Z,998.0243
2022-10-18T01:09:00.365Z,998.0243
2022-10-18T01:10:00.519Z,997.8803
2022-10-18T01:11:00.653Z,997.9379
2022-10-18T01:12:00.805Z,997.9163
2022-10-18T01:13:00.964Z,997.9451
2022-10-18T01:14:01.089Z,997.8037
2022-10-18T01:15:01.244Z,997.9091
2022-10-18T01:16:00.390Z,998.0101
2022-10-18T01:17:00.534Z,997.8328
2022-10-18T01:18:00.702Z,997.931
2022-10-18T01:19:00.854Z,997.8805
2022-10-18T01:20:00.973Z,997.8259
2022-10-18T01:21:01.121Z,997.9672
2022-10-18T01:22:00.257Z,997.8878
2022-10-18T01:23:00.420Z,997.9455
2022-10-18T01:24:00.573Z,997.9526
2022-10-18T01:25:00.739Z,997.8878
2022-10-18T01:26:00.851Z,997.8878
2022-10-18T01:27:00.988Z,998.0031
2022-10-18T01:28:01.141Z,998.032
2022-10-18T01:29:00.381Z,997.9528
2022-10-18T01:30:00.451Z,997.9745
2022-10-18T01:31:00.611Z,997.8767
2022-10-18T01:32:00.734Z,997.9029
2022-10-18T01:33:00.879Z,997.9319
2022-10-18T01:35:01.169Z,998.0401
2022-10-18T01:36:00.323Z,997.8701
2022-10-18T01:37:00.487Z,997.8701
2022-10-18T01:38:00.613Z,998.0329
2022-10-18T01:39:00.758Z,997.9682
2022-10-18T01:40:00.917Z,997.9177
2022-10-18T01:41:01.073Z,997.9465
2022-10-18T01:42:01.234Z,997.9106
2022-10-18T01:43:00.454Z,997.9394
2022-10-18T01:44:00.511Z,997.9179
2022-10-18T01:45:00.669Z,997.9251
2022-10-18T01:46:00.809Z,998.0834
2022-10-18T01:47:00.978Z,997.961
2022-10-18T01:48:01.126Z,997.896
2022-10-18T01:49:00.261Z,997.8701
2022-10-18T01:50:00.412Z,997.8888
2022-10-18T01:51:00.544Z,997.8771
2022-10-18T01:52:00.732Z,998.0329
2022-10-18T01:53:00.866Z,997.9248
2022-10-18T01:54:00.979Z,997.9607
2022-10-18T01:55:01.116Z,997.9248
2022-10-18T01:56:00.272Z,998.1193
2022-10-18T01:57:00.416Z,998.004
2022-10-18T01:58:00.582Z,997.9537
2022-10-18T01:59:00.718Z,998.3122
2022-10-18T02:00:00.865Z,998.0834
2022-10-18T02:01:01.057Z,998.0401
2022-10-18T02:02:01.163Z,997.8701
2022-10-18T02:03:00.324Z,997.9753
2022-10-18T02:04:00.459Z,998.0041
2022-10-18T02:05:00.604Z,997.9177
2022-10-18T02:06:00.767Z,997.9394
2022-10-18T02:07:00.909Z,997.997
2022-10-18T02:08:12.353Z,997.9322
2022-10-18T02:09:01.190Z,997.8413
2022-10-18T02:10:00.438Z,997.8701
2022-10-18T02:11:00.498Z,998.0041
2022-10-18T02:12:00.618Z,997.9537
2022-10-18T02:13:00.762Z,997.8772
2022-10-18T02:14:00.915Z,997.9825
2022-10-18T02:15:01.064Z,997.896
2022-10-18T02:16:01.234Z,998.1336
2022-10-18T02:17:00.356Z,997.9824
2022-10-18T02:18:00.511Z,997.9464
2022-10-18T02:19:00.665Z,997.9177
2022-10-18T02:20:00.806Z,998.2763
2022-10-18T02:21:00.958Z,997.9394
2022-10-18T02:22:01.098Z,997.9394
2022-10-18T02:23:01.279Z,997.9177
2022-10-18T02:24:00.406Z,997.9106
2022-10-18T02:25:00.545Z,997.8817
2022-10-18T02:26:00.700Z,997.8963
2022-10-18T02:27:00.840Z,997.8198
2022-10-18T02:28:01.016Z,997.9467
2022-10-18T02:29:01.143Z,997.8703
2022-10-18T02:30:00.304Z,998.2143
2022-10-18T02:31:00.428Z,997.9467
2022-10-18T02:32:00.556Z,998.2143
2022-10-18T02:33:00.731Z,997.9251
2022-10-18T02:34:00.871Z,997.9755
2022-10-18T02:35:01.028Z,998.0546
2022-10-18T02:36:01.182Z,997.9251
2022-10-18T02:37:00.323Z,998.2143
2022-10-18T02:38:00.498Z,997.8774
2022-10-18T02:39:00.620Z,998.0765
2022-10-18T02:40:00.783Z,997.8891
2022-10-18T02:41:00.932Z,997.7839
2022-10-18T02:42:01.083Z,997.9467
2022-10-18T02:43:01.249Z,997.8891
2022-10-18T02:44:00.376Z,997.8891
2022-10-18T02:45:00.521Z,997.8703
2022-10-18T02:46:00.672Z,998.1784
2022-10-18T02:47:00.816Z,998.1784
2022-10-18T02:48:00.981Z,997.9251
2022-10-18T02:49:01.109Z,997.8703
2022-10-18T02:50:00.295Z,998.1784
2022-10-18T02:51:00.411Z,997.8415
2022-10-18T02:52:00.567Z,997.9251
2022-10-18T02:53:00.704Z,997.8891
2022-10-18T02:54:00.861Z,997.8272
2022-10-18T02:55:01.014Z,997.8891
2022-10-18T02:56:01.174Z,997.9827
2022-10-18T02:57:00.298Z,997.9682
2022-10-18T02:58:00.440Z,997.9251
2022-10-18T02:59:00.581Z,997.9682
2022-10-18T03:00:00.731Z,997.997
2022-10-18T03:01:00.901Z,997.8484
2022-10-18T03:02:01.018Z,997.8699
2022-10-18T03:03:01.159Z,997.87
2022-10-18T03:04:00.308Z,997.8124
2022-10-18T03:05:00.458Z,997.8888
2022-10-18T03:06:00.596Z,998.04
2022-10-18T03:07:00.733Z,998.004
2022-10-18T03:08:00.885Z,998.004
2022-10-18T03:09:01.048Z,997.9537
2022-10-18T03:10:01.201Z,997.896
2022-10-18T03:11:00.364Z,998.0689
2022-10-18T03:12:00.502Z,998.0689
2022-10-18T03:13:00.654Z,998.0401
2022-10-18T03:14:00.805Z,997.997
2022-10-18T03:15:00.954Z,997.9682
2022-10-18T03:16:01.132Z,997.997
2022-10-18T03:17:01.242Z,998.2763
2022-10-18T03:18:00.393Z,997.9827
2022-10-18T03:19:00.546Z,998.2143
2022-10-18T03:20:00.695Z,998.1712
2022-10-18T03:21:00.853Z,998.1784
2022-10-18T03:22:01.013Z,998.1712
2022-10-18T03:23:01.136Z,998.1712
2022-10-18T03:24:00.280Z,998.0765
2022-10-18T03:25:00.436Z,998.1269
2022-10-18T03:26:00.572Z,998.1786
2022-10-18T03:27:00.742Z,998.091
2022-10-18T03:28:00.868Z,998.091
2022-10-18T03:29:01.079Z,998.2362
2022-10-18T03:30:01.159Z,998.1786
2022-10-18T03:31:00.313Z,998.1198
2022-10-18T03:32:00.484Z,998.1786
2022-10-18T03:33:00.601Z,998.0045
2022-10-18T03:34:00.756Z,998.265
2022-10-18T03:35:00.907Z,998.0693
2022-10-18T03:36:01.055Z,998.0046
2022-10-18T03:37:04.658Z,998.1857
2022-10-18T03:38:00.342Z,998.0981
2022-10-18T03:39:00.483Z,998.236
2022-10-18T03:40:00.620Z,997.997
2022-10-18T03:41:00.783Z,998.0546
2022-10-18T03:42:00.959Z,998.0041
2022-10-18T03:43:01.070Z,998.0689
2022-10-18T03:44:01.207Z,998.0616
2022-10-18T03:45:00.363Z,998.0183
2022-10-18T03:46:00.513Z,997.9822
2022-10-18T03:47:00.660Z,997.9317
2022-10-18T03:48:00.805Z,997.8813
2022-10-18T03:49:00.951Z,998.0468
2022-10-18T03:50:01.104Z,997.9963
2022-10-18T03:51:01.247Z,998.0106
2022-10-18T03:52:00.414Z,998.0033
2022-10-18T03:53:00.543Z,998.061
2022-10-18T03:54:00.690Z,998.0321
2022-10-18T03:55:00.847Z,997.888
2022-10-18T03:56:00.980Z,997.8259
2022-10-18T03:57:01.172Z,997.833
2022-10-18T03:58:00.294Z,997.9455
2022-10-18T03:59:00.428Z,997.8113
2022-10-18T04:00:00.581Z,997.8113
2022-10-18T04:01:00.730Z,998.0031
2022-10-18T04:02:00.971Z,997.9238
2022-10-18T04:03:01.027Z,997.9598
2022-10-18T04:04:01.169Z,998.0246
2022-10-18T04:05:00.320Z,997.8833
2022-10-18T04:06:00.464Z,997.8545
2022-10-18T04:07:00.630Z,997.931
2022-10-18T04:08:00.797Z,998.039
2022-10-18T04:09:02.375Z,997.9813
2022-10-18T04:10:01.053Z,997.9021
2022-10-18T04:11:01.196Z,997.9958
2022-10-18T04:12:00.346Z,997.9598
2022-10-18T04:13:00.530Z,997.8948
2022-10-18T04:14:00.657Z,998.0173
2022-10-18T04:15:00.795Z,997.938
2022-10-18T04:16:00.947Z,997.8803
2022-10-18T04:17:01.105Z,997.9451
2022-10-18T04:18:01.275Z,998.0243
2022-10-18T04:19:00.413Z,997.8944
2022-10-18T04:20:00.554Z,998.0241
2022-10-18T04:21:00.700Z,997.9304
2022-10-18T04:22:00.840Z,997.7746
2022-10-18T04:23:01.018Z,997.7889
2022-10-18T04:24:01.154Z,997.8797
2022-10-18T04:25:00.286Z,997.832
2022-10-18T04:26:00.467Z,997.6373
2022-10-18T04:27:00.585Z,997.5651
2022-10-18T04:28:00.737Z,997.6805
2022-10-18T04:29:00.969Z,997.5651
2022-10-18T04:30:01.041Z,997.5651
2022-10-18T04:31:01.185Z,997.5363
2022-10-18T04:32:00.306Z,997.93
2022-10-18T04:33:00.448Z,997.7093
2022-10-18T04:34:00.606Z,997.966
2022-10-18T04:35:00.747Z,997.6733
2022-10-18T04:36:00.918Z,997.6805
2022-10-18T04:37:01.080Z,997.6516
2022-10-18T04:38:01.197Z,997.767
2022-10-18T04:39:00.346Z,997.5651
2022-10-18T04:40:00.493Z,997.601
2022-10-18T04:41:00.634Z,997.6587
2022-10-18T04:42:00.802Z,997.5506
2022-10-18T04:43:00.958Z,997.601
2022-10-18T04:44:01.086Z,997.4568
2022-10-18T04:45:01.242Z,997.6299
2022-10-18T04:46:00.362Z,997.5506
2022-10-18T04:47:00.509Z,997.5289
2022-10-18T04:48:00.677Z,997.6443
2022-10-18T04:49:00.812Z,997.5649
2022-10-18T04:50:00.972Z,997.5
2022-10-18T04:51:01.101Z,997.5577
2022-10-18T04:52:01.248Z,997.4855
2022-10-18T04:53:00.415Z,997.3701
2022-10-18T04:54:00.549Z,997.5215
2022-10-18T04:55:00.695Z,997.4421
2022-10-18T04:56:00.852Z,997.572
2022-10-18T04:57:00.995Z,997.5863
2022-10-18T04:58:01.158Z,997.6586
2022-10-18T04:59:00.290Z,997.5432
2022-10-18T05:00:00.448Z,997.7955
2022-10-18T05:01:00.577Z,997.6801
2022-10-18T05:02:00.864Z,997.7089
2022-10-18T05:03:00.890Z,997.7592
2022-10-18T05:04:01.048Z,997.6801
2022-10-18T05:05:01.169Z,997.6801
2022-10-18T05:06:02.808Z,997.4781
2022-10-18T05:07:00.476Z,997.3701
2022-10-18T05:08:01.590Z,997.4709
2022-10-18T05:09:00.770Z,997.4278
2022-10-18T05:10:00.922Z,997.572
2022-10-18T05:11:01.158Z,997.4855
2022-10-18T05:12:01.194Z,997.5286
2022-10-18T05:13:00.357Z,997.6152
2022-10-18T05:14:00.497Z,997.5575
2022-10-18T05:15:00.661Z,997.4493
2022-10-18T05:16:00.899Z,997.3627
2022-10-18T05:17:00.939Z,997.5861
2022-10-18T05:18:01.091Z,997.4204
2022-10-18T05:19:01.230Z,997.2113
2022-10-18T05:20:00.553Z,997.3339
2022-10-18T05:21:00.539Z,997.4493
2022-10-18T05:22:00.684Z,997.615
2022-10-18T05:23:00.833Z,997.5573
2022-10-18T05:24:00.982Z,997.5573
2022-10-18T05:25:01.138Z,997.615
2022-10-18T05:26:00.268Z,997.4707
2022-10-18T05:27:00.414Z,997.5573
2022-10-18T05:28:06.266Z,997.4273
2022-10-18T05:29:00.857Z,997.3191
2022-10-18T05:30:04.545Z,997.4416
2022-10-18T05:31:01.015Z,997.4345
2022-10-18T05:32:01.156Z,997.4993
2022-10-18T05:33:00.301Z,997.4127
2022-10-18T05:34:00.451Z,997.4777
2022-10-18T05:35:00.618Z,997.3839
2022-10-18T05:36:00.746Z,997.4199
2022-10-18T05:37:00.923Z,997.4559
2022-10-18T05:38:01.060Z,997.4631
2022-10-18T05:39:04.128Z,997.4485
2022-10-18T05:40:00.394Z,997.3692
2022-10-18T05:41:00.522Z,997.5783
2022-10-18T05:42:00.660Z,997.304
2022-10-18T05:43:00.811Z,997.405
2022-10-18T05:44:00.964Z,997.3473
2022-10-18T05:45:01.128Z,997.4121
2022-10-18T05:46:01.262Z,997.3038
2022-10-18T05:47:00.406Z,997.4407
2022-10-18T05:48:00.570Z,997.5561
2022-10-18T05:49:00.711Z,997.2386
2022-10-18T05:50:00.877Z,997.2601
2022-10-18T05:51:01.026Z,997.3107
2022-10-18T05:52:01.169Z,997.2312
2022-10-18T05:53:11.871Z,997.1735
2022-10-18T05:54:00.428Z,997.361
2022-10-18T05:55:00.587Z,997.2743
2022-10-18T05:56:00.725Z,997.3032
2022-10-18T05:57:00.893Z,997.2743
2022-10-18T05:58:01.011Z,997.3176
2022-10-18T05:59:01.149Z,997.3176
2022-10-18T06:00:00.298Z,997.3248
2022-10-18T06:01:00.434Z,997.3536
2022-10-18T06:02:00.605Z,997.1297
2022-10-18T06:03:00.845Z,997.3896
2022-10-18T06:04:00.865Z,997.2307
2022-10-18T06:05:01.003Z,997.4617
2022-10-18T06:06:01.148Z,997.2953
2022-10-18T06:07:00.306Z,997.613
2022-10-18T06:08:00.443Z,997.1584
2022-10-18T06:09:00.578Z,997.2376
2022-10-18T06:10:00.759Z,997.2665
2022-10-18T06:11:00.884Z,997.1509
2022-10-18T06:12:01.037Z,997.3531
2022-10-18T06:13:01.200Z,997.2736
2022-10-18T06:14:00.333Z,997.4252
2022-10-18T06:15:00.502Z,997.1221
2022-10-18T06:16:00.646Z,997.223
2022-10-18T06:17:00.771Z,997.1941
2022-10-18T06:18:00.928Z,997.4324
2022-10-18T06:19:01.067Z,997.2591
2022-10-18T06:20:01.210Z,997.2446
2022-10-18T06:21:00.370Z,997.1725
2022-10-18T06:22:00.514Z,997.1147
2022-10-18T06:23:00.659Z,997.2301
2022-10-18T06:24:00.831Z,997.0858
2022-10-18T06:25:00.970Z,997.1436
2022-10-18T06:26:01.128Z,997.1291
2022-10-18T06:27:00.327Z,997.2806
2022-10-18T06:28:00.417Z,997.0856
2022-10-18T06:29:00.635Z,997.3166
2022-10-18T06:30:00.729Z,997.2732
2022-10-18T06:31:00.858Z,997.1865
2022-10-18T06:32:01.005Z,997.2009
2022-10-18T06:33:01.158Z,997.2587
2022-10-18T06:34:00.289Z,997.2009
2022-10-18T06:35:00.449Z,997.0854
2022-10-18T06:36:00.597Z,997.0854
2022-10-18T06:37:00.723Z,997.172
2022-10-18T06:38:00.880Z,997.1503
2022-10-18T06:39:01.028Z,997.1791
2022-10-18T06:40:01.185Z,997.2729
2022-10-18T06:41:00.313Z,997.4173
2022-10-18T06:42:00.458Z,997.4173
2022-10-18T06:43:10.641Z,997.1503
2022-10-18T06:44:00.751Z,997.2587
2022-10-18T06:45:00.921Z,997.3164
2022-10-18T06:46:01.050Z,997.3453
2022-10-18T06:47:01.206Z,997.2009
2022-10-18T06:48:00.357Z,997.3596
2022-10-18T06:49:00.492Z,997.4391
2022-10-18T06:50:00.672Z,997.2369
2022-10-18T06:51:00.788Z,997.3596
2022-10-18T06:52:00.941Z,997.468
2022-10-18T06:53:01.087Z,997.504
2022-10-18T06:54:16.943Z,997.3018
2022-10-18T06:55:00.400Z,997.3596
2022-10-18T06:56:00.561Z,997.3018
2022-10-18T06:57:00.690Z,997.3018
2022-10-18T06:58:00.840Z,997.1862
2022-10-18T06:59:01.006Z,997.1935
2022-10-18T07:00:01.142Z,997.1428
2022-10-18T07:01:00.300Z,997.1357
2022-10-18T07:02:00.529Z,997.1139
2022-10-18T07:03:00.573Z,997.0201
2022-10-18T07:04:00.694Z,997.1211
2022-10-18T07:05:00.851Z,997.1859
2022-10-18T07:06:01.045Z,997.2509
2022-10-18T07:07:01.145Z,997.1496
2022-10-18T07:08:00.277Z,997.1496
2022-10-18T07:09:00.420Z,997.2
2022-10-18T07:10:00.570Z,996.9689
2022-10-18T07:11:00.720Z,997.113
2022-10-18T07:12:00.902Z,996.9469
2022-10-18T07:13:20.007Z,996.9972
2022-10-18T07:14:01.165Z,997.2499
2022-10-18T07:15:00.314Z,997.1269
2022-10-18T07:16:00.448Z,996.9823
2022-10-18T07:17:00.618Z,997.0255
2022-10-18T07:18:00.764Z,997.0328
2022-10-18T07:19:00.896Z,997.1409
2022-10-18T07:20:01.047Z,997.1482
2022-10-18T07:21:01.192Z,996.9961
2022-10-18T07:22:00.326Z,996.9961
2022-10-18T07:23:00.494Z,996.873
2022-10-18T07:24:00.629Z,997.0102
2022-10-18T07:25:00.778Z,996.9665
2022-10-18T07:26:00.927Z,996.7424
2022-10-18T07:27:01.069Z,996.9157
2022-10-18T07:28:01.245Z,996.8143
2022-10-18T07:29:00.615Z,996.9007
2022-10-18T07:30:00.530Z,996.98
2022-10-18T07:31:03.721Z,996.8208
2022-10-18T07:32:00.801Z,996.7629
2022-10-18T07:33:00.951Z,996.8495
2022-10-18T07:34:01.102Z,996.7191
2022-10-18T07:35:00.335Z,996.8275
2022-10-18T07:36:00.401Z,996.9139
2022-10-18T07:37:00.551Z,996.8704
2022-10-18T07:38:00.710Z,996.769
2022-10-18T07:39:00.851Z,996.8483
2022-10-18T07:40:01.036Z,996.9494
2022-10-18T07:41:01.159Z,996.9855
2022-10-18T07:42:00.303Z,996.8551
2022-10-18T07:43:04.509Z,997.0288
2022-10-18T07:44:00.594Z,996.7393
2022-10-18T07:45:00.767Z,996.8115
2022-10-18T07:46:00.887Z,996.6378
2022-10-18T07:47:01.040Z,996.7969
2022-10-18T07:48:01.188Z,996.7172
2022-10-18T07:49:00.314Z,996.6594
2022-10-18T07:50:00.489Z,996.6882
2022-10-18T07:51:00.611Z,996.6593
2022-10-18T07:52:00.757Z,996.7751
2022-10-18T07:53:00.912Z,996.6594
2022-10-18T07:54:01.063Z,996.6883
2022-10-18T07:55:01.211Z,996.6594
2022-10-18T07:56:02.320Z,996.551
2022-10-18T07:57:00.500Z,996.739
2022-10-18T07:58:00.679Z,996.7247
2022-10-18T07:59:00.788Z,996.6886
2022-10-18T08:00:00.945Z,996.6525
2022-10-18T08:01:01.096Z,996.5946
2022-10-18T08:02:01.414Z,996.4673
2022-10-18T08:03:00.410Z,996.6312
2022-10-18T08:04:06.056Z,996.6599
2022-10-18T08:05:00.660Z,996.566
2022-10-18T08:06:00.819Z,996.7108
2022-10-18T08:07:00.973Z,996.5081
2022-10-18T08:08:04.275Z,996.8122
2022-10-18T08:09:00.278Z,996.417
2022-10-18T08:10:00.422Z,996.472
2022-10-18T08:11:00.569Z,996.4313
2022-10-18T08:12:00.745Z,996.4024
2022-10-18T08:13:00.870Z,996.3806
2022-10-18T08:14:01.014Z,996.4165
2022-10-18T08:15:01.158Z,996.4091
2022-10-18T08:16:00.306Z,996.4523
2022-10-18T08:17:00.468Z,996.4856
2022-10-18T08:18:00.616Z,996.4374
2022-10-18T08:19:00.740Z,996.5645
2022-10-18T08:20:11.877Z,996.4368
2022-10-18T08:21:01.045Z,996.4365
2022-10-18T08:22:01.184Z,996.3492
2022-10-18T08:23:00.889Z,996.5706
2022-10-18T08:24:00.487Z,996.5052
2022-10-18T08:25:00.629Z,996.4829
2022-10-18T08:26:00.777Z,996.5478
2022-10-18T08:27:00.920Z,996.3184
2022-10-18T08:28:01.099Z,996.4266
2022-10-18T08:29:17.909Z,996.4409
2022-10-18T08:30:00.463Z,996.2738
2022-10-18T08:31:00.509Z,996.3095
2022-10-18T08:32:00.662Z,996.3745
2022-10-18T08:33:00.824Z,996.3883
2022-10-18T08:34:00.941Z,996.359
2022-10-18T08:35:02.309Z,996.3368
2022-10-18T08:36:01.234Z,996.2782
2022-10-18T08:37:00.376Z,996.4591
2022-10-18T08:38:00.561Z,996.6372
2022-10-18T08:39:00.675Z,996.1317
2022-10-18T08:40:00.826Z,996.3492
2022-10-18T08:41:00.974Z,996.1677
2022-10-18T08:42:01.121Z,996.2834
2022-10-18T08:43:00.282Z,996.1527
2022-10-18T08:44:02.222Z,996.1598
2022-10-18T08:45:08.201Z,996.1598
2022-10-18T08:46:00.722Z,996.1598
2022-10-18T08:47:00.865Z,996.2175
2022-10-18T08:48:01.029Z,996.2971
2022-10-18T08:49:01.188Z,996.3334
2022-10-18T08:50:00.317Z,996.2025
2022-10-18T08:51:00.458Z,996.4345
2022-10-18T08:52:00.616Z,996.2893
2022-10-18T08:53:00.758Z,996.2233
2022-10-18T08:54:00.919Z,996.2588
2022-10-18T08:55:01.061Z,996.2508
2022-10-18T08:56:01.212Z,996.3234
2022-10-18T08:57:00.364Z,996.524
2022-10-18T08:58:00.506Z,996.524
2022-10-18T08:59:00.695Z,996.524
2022-10-18T09:00:00.803Z,996.524
2022-10-18T09:01:00.963Z,996.4878
2022-10-18T09:02:01.104Z,996.4878
2022-10-18T09:03:00.310Z,996.575
2022-10-18T09:04:00.420Z,996.5459
2022-10-18T09:05:00.535Z,996.524
2022-10-18T09:06:00.699Z,996.6327
2022-10-18T09:07:00.833Z,996.4683
2022-10-18T09:08:00.991Z,996.4727
2022-10-18T09:09:01.153Z,996.4943
2022-10-18T09:10:00.289Z,996.5162
2022-10-18T09:11:00.427Z,996.567
2022-10-18T09:12:02.112Z,996.865
2022-10-18T09:13:00.715Z,996.9159
2022-10-18T09:14:00.911Z,996.9375
2022-10-18T09:15:01.063Z,996.93
2022-10-18T09:16:01.173Z,996.9156
2022-10-18T09:17:00.316Z,997.0319
2022-10-18T09:18:00.473Z,996.9012
2022-10-18T09:19:00.637Z,996.93
2022-10-18T09:21:00.916Z,997.0021
2022-10-18T09:22:01.068Z,997.1258
2022-10-18T09:23:01.214Z,997.1261
2022-10-18T09:24:00.383Z,997.0823
2022-10-18T09:25:00.532Z,997.1984
2022-10-18T09:26:00.649Z,996.973
2022-10-18T09:27:00.791Z,997.2057
2022-10-18T09:28:00.940Z,996.9511
2022-10-18T09:29:01.212Z,996.9145
2022-10-18T09:30:01.254Z,997.0743
2022-10-18T09:31:00.375Z,996.9215
2022-10-18T09:32:00.530Z,996.8051
2022-10-18T09:33:00.667Z,997.0306
2022-10-18T09:34:00.813Z,996.9361
2022-10-18T09:35:00.982Z,996.9289
2022-10-18T09:36:01.111Z,996.9361
2022-10-18T09:37:00.261Z,996.8776
2022-10-18T09:38:00.399Z,996.8992
2022-10-18T09:39:00.743Z,996.8917
2022-10-18T09:40:00.736Z,997.0372
2022-10-18T09:41:00.850Z,996.9865
2022-10-18T09:42:01.001Z,996.979
2022-10-18T09:43:01.147Z,997.0372
2022-10-18T09:44:00.296Z,997.1611
2022-10-18T09:45:00.468Z,997.0156
2022-10-18T09:46:00.583Z,997.1829
2022-10-18T09:47:00.730Z,997.1394
2022-10-18T09:48:00.878Z,997.2267
2022-10-18T09:49:01.026Z,997.1251
2022-10-18T09:50:01.182Z,997.1325
2022-10-18T09:51:00.304Z,997.3508
2022-10-18T09:52:00.451Z,997.1181
2022-10-18T09:53:00.603Z,997.3943
2022-10-18T09:54:00.741Z,997.3508
2022-10-18T09:55:00.921Z,997.2782
2022-10-18T09:56:01.051Z,997.2057
2022-10-18T09:57:01.185Z,997.431
2022-10-18T09:58:00.358Z,997.4166
2022-10-18T09:59:00.487Z,997.4021
2022-10-18T10:00:00.655Z,997.3949
2022-10-18T10:01:00.772Z,997.4021
2022-10-18T10:02:01.037Z,997.5401
2022-10-18T10:03:01.085Z,997.3875
2022-10-18T10:04:01.233Z,997.2858
2022-10-18T10:05:00.469Z,997.6201
2022-10-18T10:06:00.554Z,997.3587
2022-10-18T10:07:00.676Z,997.3224
2022-10-18T10:08:00.828Z,997.2861
2022-10-18T10:09:00.981Z,997.4024
2022-10-18T10:10:01.120Z,997.2352
2022-10-18T10:11:00.286Z,997.2061
2022-10-18T10:12:00.407Z,997.4387
2022-10-18T10:13:00.572Z,997.3807
2022-10-18T10:14:00.720Z,997.4387
2022-10-18T10:15:00.868Z,997.4389
2022-10-18T10:16:01.037Z,997.4242
2022-10-18T10:17:01.176Z,997.2861
2022-10-18T10:18:00.327Z,997.3077
2022-10-18T10:19:00.457Z,997.3003
2022-10-18T10:20:00.594Z,997.3148
2022-10-18T10:21:00.742Z,997.6274
2022-10-18T10:22:00.921Z,997.6274
2022-10-18T10:23:01.044Z,997.4166
2022-10-18T10:24:01.186Z,997.4748
2022-10-18T10:25:00.332Z,997.5112
2022-10-18T10:26:00.486Z,997.4533
2022-10-18T10:27:00.647Z,997.4533
2022-10-18T10:28:00.809Z,997.3954
2022-10-18T10:29:01.002Z,997.4466
2022-10-18T10:30:05.720Z,997.4466
2022-10-18T10:31:01.234Z,997.432
2022-10-18T10:32:00.381Z,997.5552
2022-10-18T10:33:00.543Z,997.6059
2022-10-18T10:34:00.678Z,997.5405
2022-10-18T10:35:00.824Z,997.5842
2022-10-18T10:36:00.982Z,997.5696
2022-10-18T10:37:01.120Z,997.6133
2022-10-18T10:38:00.292Z,997.65
2022-10-18T10:39:00.421Z,997.5049
2022-10-18T10:40:17.344Z,997.5049
2022-10-18T10:41:00.720Z,997.4977
2022-10-18T10:42:00.865Z,997.4614
2022-10-18T10:43:12.696Z,997.5489
2022-10-18T10:44:01.156Z,997.4983
2022-10-18T10:45:00.311Z,997.4983
2022-10-18T10:46:00.450Z,997.6291
2022-10-18T10:47:00.583Z,997.6655
2022-10-18T10:48:00.719Z,997.5493
2022-10-18T10:49:27.860Z,997.6
2022-10-18T10:50:01.029Z,997.7743
2022-10-18T10:51:01.148Z,997.9677
2022-10-18T10:52:08.808Z,997.6726
2022-10-18T10:53:00.445Z,997.6074
2022-10-18T10:54:00.613Z,997.7236
2022-10-18T10:55:06.127Z,997.6147
2022-10-18T10:56:00.893Z,997.5275
2022-10-18T10:57:01.081Z,997.6365
2022-10-18T10:58:01.210Z,997.564
2022-10-18T10:59:00.428Z,997.5496
2022-10-18T11:00:00.532Z,997.7167
2022-10-18T11:01:00.646Z,997.7312
2022-10-18T11:02:00.795Z,997.637
2022-10-18T11:03:10.940Z,997.6731
2022-10-18T11:04:01.190Z,997.6806
2022-10-18T11:05:01.255Z,997.7024
2022-10-18T11:06:00.366Z,997.6661
2022-10-18T11:07:00.520Z,997.6443
2022-10-18T11:08:00.658Z,997.7241
2022-10-18T11:09:00.807Z,997.7022
2022-10-18T11:10:00.976Z,997.7022
2022-10-18T11:11:01.124Z,997.6731
2022-10-18T11:12:00.244Z,997.6804
2022-10-18T11:13:00.410Z,997.7167
2022-10-18T11:14:24.767Z,997.6804
2022-10-18T11:15:00.706Z,997.666
2022-10-18T11:16:00.865Z,997.717
2022-10-18T11:17:03.162Z,997.7533
2022-10-18T11:18:01.161Z,997.7461
2022-10-18T11:19:00.276Z,997.8041
2022-10-18T11:20:00.421Z,997.9393
2022-10-18T11:21:00.586Z,997.8696
2022-10-18T11:22:00.718Z,997.9177
2022-10-18T11:23:00.883Z,997.9688
2022-10-18T11:24:01.016Z,997.8702
2022-10-18T11:25:01.155Z,997.7616
2022-10-18T11:26:00.328Z,997.6891
2022-10-18T11:27:00.474Z,997.7109
2022-10-18T11:28:00.595Z,997.8633
2022-10-18T11:29:00.802Z,997.8052
2022-10-18T11:30:00.903Z,997.7181
2022-10-18T11:31:01.054Z,997.7543
2022-10-18T11:32:01.223Z,997.7181
2022-10-18T11:33:00.357Z,997.7472
2022-10-18T11:34:09.687Z,997.7472
2022-10-18T11:35:00.651Z,997.7543
2022-10-18T11:36:03.800Z,997.6745
2022-10-18T11:37:22.594Z,997.6601
2022-10-18T11:38:01.096Z,997.7181
2022-10-18T11:39:01.242Z,997.6164
2022-10-18T11:40:00.423Z,997.8196
2022-10-18T11:41:00.530Z,997.6454
2022-10-18T11:42:00.682Z,997.7541
2022-10-18T11:43:00.824Z,997.7325
2022-10-18T11:44:02.974Z,997.8124
2022-10-18T11:45:01.147Z,997.6891
2022-10-18T11:46:00.270Z,997.7545
2022-10-18T11:47:00.454Z,997.8342
2022-10-18T11:48:00.562Z,997.9113
2022-10-18T11:49:00.717Z,997.8052